sensor_id;sensor_type;location;lat;lon;timestamp;P1;durP1;ratioP1;P2;durP2;ratioP2
46613;SDS011;32338;50.430;6.806;2022-08-05T00:01:12;7.90;;;3.70;;
46613;SDS011;32338;50.430;6.806;2022-08-05T00:03:40;5.35;;;3.45;;
46613;SDS011;32338;50.430;6.806;2022-08-05T00:06:07;9.30;;;4.35;;
46613;SDS011;32338;50.430;6.806;2022-08-05T00:08:34;8.95;;;4.45;;
46613;SDS011;32338;50.430;6.806;2022-08-05T00:11:02;7.55;;;4.85;;
46613;SDS011;32338;50.430;6.806;2022-08-05T00:13:32;6.63;;;3.90;;
46613;SDS011;32338;50.430;6.806;2022-08-05T00:16:00;6.72;;;4.40;;
46613;SDS011;32338;50.430;6.806;2022-08-05T00:18:27;7.25;;;4.68;;
46613;SDS011;32338;50.430;6.806;2022-08-05T00:20:54;4.68;;;3.78;;
46613;SDS011;32338;50.430;6.806;2022-08-05T00:23:21;7.10;;;4.72;;
46613;SDS011;32338;50.430;6.806;2022-08-05T00:25:48;6.05;;;4.05;;
46613;SDS011;32338;50.430;6.806;2022-08-05T00:28:15;5.10;;;3.70;;
46613;SDS011;32338;50.430;6.806;2022-08-05T00:30:44;5.88;;;4.47;;
46613;SDS011;32338;50.430;6.806;2022-08-05T00:33:11;4.07;;;3.55;;
46613;SDS011;32338;50.430;6.806;2022-08-05T00:35:38;4.60;;;3.67;;
46613;SDS011;32338;50.430;6.806;2022-08-05T00:38:04;9.00;;;4.75;;
46613;SDS011;32338;50.430;6.806;2022-08-05T00:40:31;5.78;;;3.53;;
46613;SDS011;32338;50.430;6.806;2022-08-05T00:42:59;3.92;;;3.55;;
46613;SDS011;32338;50.430;6.806;2022-08-05T00:45:27;6.45;;;4.22;;
46613;SDS011;32338;50.430;6.806;2022-08-05T00:47:55;4.60;;;3.22;;
46613;SDS011;32338;50.430;6.806;2022-08-05T00:50:22;6.70;;;3.22;;
46613;SDS011;32338;50.430;6.806;2022-08-05T00:52:49;5.85;;;3.72;;
46613;SDS011;32338;50.430;6.806;2022-08-05T00:55:16;7.97;;;3.83;;
46613;SDS011;32338;50.430;6.806;2022-08-05T00:57:42;7.20;;;3.67;;
46613;SDS011;32338;50.430;6.806;2022-08-05T01:00:09;4.82;;;2.90;;
46613;SDS011;32338;50.430;6.806;2022-08-05T01:02:37;3.28;;;2.97;;
46613;SDS011;32338;50.430;6.806;2022-08-05T01:05:05;4.68;;;3.03;;
46613;SDS011;32338;50.430;6.806;2022-08-05T01:07:32;5.07;;;2.72;;
46613;SDS011;32338;50.430;6.806;2022-08-05T01:09:59;5.18;;;3.03;;
46613;SDS011;32338;50.430;6.806;2022-08-05T01:12:27;3.65;;;2.92;;
46613;SDS011;32338;50.430;6.806;2022-08-05T01:14:55;3.60;;;2.67;;
46613;SDS011;32338;50.430;6.806;2022-08-05T01:17:25;4.40;;;3.13;;
46613;SDS011;32338;50.430;6.806;2022-08-05T01:19:58;7.18;;;2.53;;
46613;SDS011;32338;50.430;6.806;2022-08-05T01:22:39;8.60;;;2.97;;
46613;SDS011;32338;50.430;6.806;2022-08-05T01:25:27;4.95;;;2.67;;
46613;SDS011;32338;50.430;6.806;2022-08-05T01:28:14;6.03;;;3.20;;
46613;SDS011;32338;50.430;6.806;2022-08-05T01:30:44;4.10;;;3.40;;
46613;SDS011;32338;50.430;6.806;2022-08-05T01:33:16;3.78;;;3.38;;
46613;SDS011;32338;50.430;6.806;2022-08-05T01:35:46;5.45;;;3.17;;
46613;SDS011;32338;50.430;6.806;2022-08-05T01:38:15;4.72;;;2.63;;
46613;SDS011;32338;50.430;6.806;2022-08-05T01:40:43;3.55;;;3.10;;
46613;SDS011;32338;50.430;6.806;2022-08-05T01:43:13;6.13;;;2.85;;
46613;SDS011;32338;50.430;6.806;2022-08-05T01:45:42;3.08;;;2.78;;
46613;SDS011;32338;50.430;6.806;2022-08-05T01:48:09;3.75;;;2.85;;
46613;SDS011;32338;50.430;6.806;2022-08-05T01:50:37;7.18;;;2.92;;
46613;SDS011;32338;50.430;6.806;2022-08-05T01:53:05;4.13;;;2.78;;
46613;SDS011;32338;50.430;6.806;2022-08-05T01:55:35;4.53;;;2.50;;
46613;SDS011;32338;50.430;6.806;2022-08-05T01:58:04;4.88;;;3.00;;
46613;SDS011;32338;50.430;6.806;2022-08-05T02:00:36;4.60;;;2.53;;
46613;SDS011;32338;50.430;6.806;2022-08-05T02:03:08;8.18;;;3.25;;
46613;SDS011;32338;50.430;6.806;2022-08-05T02:05:40;4.82;;;2.78;;
46613;SDS011;32338;50.430;6.806;2022-08-05T02:08:10;3.63;;;2.78;;
46613;SDS011;32338;50.430;6.806;2022-08-05T02:10:39;5.72;;;3.70;;
46613;SDS011;32338;50.430;6.806;2022-08-05T02:13:11;11.18;;;7.45;;
46613;SDS011;32338;50.430;6.806;2022-08-05T02:15:43;7.65;;;6.07;;
46613;SDS011;32338;50.430;6.806;2022-08-05T02:18:13;4.22;;;3.28;;
46613;SDS011;32338;50.430;6.806;2022-08-05T02:20:46;5.10;;;3.22;;
46613;SDS011;32338;50.430;6.806;2022-08-05T02:23:18;3.20;;;2.90;;
46613;SDS011;32338;50.430;6.806;2022-08-05T02:25:48;4.00;;;2.60;;
46613;SDS011;32338;50.430;6.806;2022-08-05T02:28:18;5.50;;;4.32;;
46613;SDS011;32338;50.430;6.806;2022-08-05T02:30:51;7.50;;;6.72;;
46613;SDS011;32338;50.430;6.806;2022-08-05T02:33:24;13.23;;;7.93;;
46613;SDS011;32338;50.430;6.806;2022-08-05T02:35:52;12.93;;;7.55;;
46613;SDS011;32338;50.430;6.806;2022-08-05T02:38:23;11.40;;;7.18;;
46613;SDS011;32338;50.430;6.806;2022-08-05T02:40:53;9.90;;;6.57;;
46613;SDS011;32338;50.430;6.806;2022-08-05T02:43:23;5.85;;;5.30;;
46613;SDS011;32338;50.430;6.806;2022-08-05T02:45:52;10.32;;;5.93;;
46613;SDS011;32338;50.430;6.806;2022-08-05T02:48:20;7.35;;;5.45;;
46613;SDS011;32338;50.430;6.806;2022-08-05T02:50:48;10.60;;;6.50;;
46613;SDS011;32338;50.430;6.806;2022-08-05T02:53:20;7.78;;;6.93;;
46613;SDS011;32338;50.430;6.806;2022-08-05T02:55:50;11.30;;;6.65;;
46613;SDS011;32338;50.430;6.806;2022-08-05T02:58:18;6.30;;;5.55;;
46613;SDS011;32338;50.430;6.806;2022-08-05T03:00:49;8.82;;;5.88;;
46613;SDS011;32338;50.430;6.806;2022-08-05T03:03:38;10.07;;;6.05;;
46613;SDS011;32338;50.430;6.806;2022-08-05T03:06:11;8.38;;;5.18;;
46613;SDS011;32338;50.430;6.806;2022-08-05T03:08:44;8.70;;;5.90;;
46613;SDS011;32338;50.430;6.806;2022-08-05T03:11:15;10.25;;;6.35;;
46613;SDS011;32338;50.430;6.806;2022-08-05T03:13:45;7.93;;;7.13;;
46613;SDS011;32338;50.430;6.806;2022-08-05T03:16:12;9.07;;;6.88;;
46613;SDS011;32338;50.430;6.806;2022-08-05T03:18:40;8.90;;;6.57;;
46613;SDS011;32338;50.430;6.806;2022-08-05T03:21:07;7.85;;;5.70;;
46613;SDS011;32338;50.430;6.806;2022-08-05T03:23:35;6.97;;;5.32;;
46613;SDS011;32338;50.430;6.806;2022-08-05T03:26:03;5.03;;;4.53;;
46613;SDS011;32338;50.430;6.806;2022-08-05T03:28:30;9.57;;;5.78;;
46613;SDS011;32338;50.430;6.806;2022-08-05T03:30:58;6.40;;;5.38;;
46613;SDS011;32338;50.430;6.806;2022-08-05T03:33:26;6.70;;;4.93;;
46613;SDS011;32338;50.430;6.806;2022-08-05T03:35:55;8.90;;;5.70;;
46613;SDS011;32338;50.430;6.806;2022-08-05T03:38:23;10.60;;;6.82;;
46613;SDS011;32338;50.430;6.806;2022-08-05T03:40:51;15.13;;;9.32;;
46613;SDS011;32338;50.430;6.806;2022-08-05T03:43:18;13.60;;;9.80;;
46613;SDS011;32338;50.430;6.806;2022-08-05T03:45:48;12.02;;;8.90;;
46613;SDS011;32338;50.430;6.806;2022-08-05T03:48:18;15.88;;;9.38;;
46613;SDS011;32338;50.430;6.806;2022-08-05T03:50:47;11.77;;;8.05;;
46613;SDS011;32338;50.430;6.806;2022-08-05T03:53:20;15.23;;;9.65;;
46613;SDS011;32338;50.430;6.806;2022-08-05T03:55:56;23.38;;;9.18;;
46613;SDS011;32338;50.430;6.806;2022-08-05T03:58:26;18.25;;;10.95;;
46613;SDS011;32338;50.430;6.806;2022-08-05T04:00:58;16.30;;;11.68;;
46613;SDS011;32338;50.430;6.806;2022-08-05T04:03:27;19.80;;;12.75;;
46613;SDS011;32338;50.430;6.806;2022-08-05T04:06:00;22.52;;;12.63;;
46613;SDS011;32338;50.430;6.806;2022-08-05T04:08:29;21.08;;;12.32;;
46613;SDS011;32338;50.430;6.806;2022-08-05T04:10:58;21.70;;;14.52;;
46613;SDS011;32338;50.430;6.806;2022-08-05T04:13:26;21.25;;;14.30;;
46613;SDS011;32338;50.430;6.806;2022-08-05T04:15:53;23.27;;;15.35;;
46613;SDS011;32338;50.430;6.806;2022-08-05T04:18:21;17.40;;;14.25;;
46613;SDS011;32338;50.430;6.806;2022-08-05T04:20:51;19.08;;;12.57;;
46613;SDS011;32338;50.430;6.806;2022-08-05T04:23:19;20.10;;;15.07;;
46613;SDS011;32338;50.430;6.806;2022-08-05T04:25:49;15.68;;;11.82;;
46613;SDS011;32338;50.430;6.806;2022-08-05T04:28:16;19.08;;;13.05;;
46613;SDS011;32338;50.430;6.806;2022-08-05T04:30:43;14.52;;;11.85;;
46613;SDS011;32338;50.430;6.806;2022-08-05T04:33:10;14.82;;;10.68;;
46613;SDS011;32338;50.430;6.806;2022-08-05T04:35:37;16.92;;;11.88;;
46613;SDS011;32338;50.430;6.806;2022-08-05T04:38:03;13.90;;;11.57;;
46613;SDS011;32338;50.430;6.806;2022-08-05T04:40:31;16.30;;;13.10;;
46613;SDS011;32338;50.430;6.806;2022-08-05T04:43:00;23.65;;;12.05;;
46613;SDS011;32338;50.430;6.806;2022-08-05T04:45:27;17.77;;;11.43;;
46613;SDS011;32338;50.430;6.806;2022-08-05T04:47:54;17.27;;;13.65;;
46613;SDS011;32338;50.430;6.806;2022-08-05T04:50:27;21.83;;;13.73;;
46613;SDS011;32338;50.430;6.806;2022-08-05T04:52:54;14.15;;;12.60;;
46613;SDS011;32338;50.430;6.806;2022-08-05T04:55:20;18.27;;;13.60;;
46613;SDS011;32338;50.430;6.806;2022-08-05T04:57:47;13.52;;;12.13;;
46613;SDS011;32338;50.430;6.806;2022-08-05T05:00:15;18.58;;;13.18;;
46613;SDS011;32338;50.430;6.806;2022-08-05T05:02:42;17.88;;;13.43;;
46613;SDS011;32338;50.430;6.806;2022-08-05T05:05:09;15.32;;;13.38;;
46613;SDS011;32338;50.430;6.806;2022-08-05T05:07:35;16.98;;;14.10;;
46613;SDS011;32338;50.430;6.806;2022-08-05T05:10:02;14.52;;;13.02;;
46613;SDS011;32338;50.430;6.806;2022-08-05T05:12:30;17.02;;;13.15;;
46613;SDS011;32338;50.430;6.806;2022-08-05T05:14:57;17.98;;;14.35;;
46613;SDS011;32338;50.430;6.806;2022-08-05T05:17:25;14.95;;;13.23;;
46613;SDS011;32338;50.430;6.806;2022-08-05T05:19:52;20.98;;;15.23;;
46613;SDS011;32338;50.430;6.806;2022-08-05T05:22:20;18.77;;;14.95;;
46613;SDS011;32338;50.430;6.806;2022-08-05T05:24:46;18.90;;;14.70;;
46613;SDS011;32338;50.430;6.806;2022-08-05T05:27:13;17.55;;;14.77;;
46613;SDS011;32338;50.430;6.806;2022-08-05T05:29:40;23.75;;;15.90;;
46613;SDS011;32338;50.430;6.806;2022-08-05T05:32:06;17.65;;;14.90;;
46613;SDS011;32338;50.430;6.806;2022-08-05T05:34:34;18.08;;;15.73;;
46613;SDS011;32338;50.430;6.806;2022-08-05T05:37:01;18.25;;;14.95;;
46613;SDS011;32338;50.430;6.806;2022-08-05T05:39:27;15.63;;;13.35;;
46613;SDS011;32338;50.430;6.806;2022-08-05T05:41:54;16.92;;;14.98;;
46613;SDS011;32338;50.430;6.806;2022-08-05T05:44:21;15.07;;;13.00;;
46613;SDS011;32338;50.430;6.806;2022-08-05T05:46:47;12.70;;;11.38;;
46613;SDS011;32338;50.430;6.806;2022-08-05T05:49:14;12.23;;;10.93;;
46613;SDS011;32338;50.430;6.806;2022-08-05T05:51:42;19.10;;;14.25;;
46613;SDS011;32338;50.430;6.806;2022-08-05T05:54:08;15.88;;;13.48;;
46613;SDS011;32338;50.430;6.806;2022-08-05T05:56:35;16.05;;;13.48;;
46613;SDS011;32338;50.430;6.806;2022-08-05T05:59:02;14.48;;;13.00;;
46613;SDS011;32338;50.430;6.806;2022-08-05T06:01:29;15.40;;;13.90;;
46613;SDS011;32338;50.430;6.806;2022-08-05T06:03:56;15.50;;;13.80;;
46613;SDS011;32338;50.430;6.806;2022-08-05T06:06:23;13.82;;;12.52;;
46613;SDS011;32338;50.430;6.806;2022-08-05T06:08:51;22.67;;;14.98;;
46613;SDS011;32338;50.430;6.806;2022-08-05T06:11:18;17.75;;;14.32;;
46613;SDS011;32338;50.430;6.806;2022-08-05T06:13:44;19.95;;;15.10;;
46613;SDS011;32338;50.430;6.806;2022-08-05T06:16:11;15.45;;;13.70;;
46613;SDS011;32338;50.430;6.806;2022-08-05T06:18:37;16.13;;;14.30;;
46613;SDS011;32338;50.430;6.806;2022-08-05T06:21:04;18.40;;;16.35;;
46613;SDS011;32338;50.430;6.806;2022-08-05T06:23:31;20.02;;;16.50;;
46613;SDS011;32338;50.430;6.806;2022-08-05T06:25:59;19.90;;;16.33;;
46613;SDS011;32338;50.430;6.806;2022-08-05T06:28:26;19.88;;;17.48;;
46613;SDS011;32338;50.430;6.806;2022-08-05T06:30:52;18.33;;;16.48;;
46613;SDS011;32338;50.430;6.806;2022-08-05T06:33:19;17.73;;;15.68;;
46613;SDS011;32338;50.430;6.806;2022-08-05T06:35:45;17.70;;;15.80;;
46613;SDS011;32338;50.430;6.806;2022-08-05T06:38:12;17.35;;;15.05;;
46613;SDS011;32338;50.430;6.806;2022-08-05T06:40:39;20.10;;;14.88;;
46613;SDS011;32338;50.430;6.806;2022-08-05T06:43:09;17.92;;;13.82;;
46613;SDS011;32338;50.430;6.806;2022-08-05T06:45:35;20.10;;;16.13;;
46613;SDS011;32338;50.430;6.806;2022-08-05T06:48:02;19.02;;;15.82;;
46613;SDS011;32338;50.430;6.806;2022-08-05T06:50:29;14.68;;;13.10;;
46613;SDS011;32338;50.430;6.806;2022-08-05T06:52:56;21.63;;;15.07;;
46613;SDS011;32338;50.430;6.806;2022-08-05T06:55:22;17.08;;;15.10;;
46613;SDS011;32338;50.430;6.806;2022-08-05T06:57:49;16.63;;;13.75;;
46613;SDS011;32338;50.430;6.806;2022-08-05T07:00:18;16.33;;;14.10;;
46613;SDS011;32338;50.430;6.806;2022-08-05T07:02:45;15.50;;;13.73;;
46613;SDS011;32338;50.430;6.806;2022-08-05T07:05:12;12.23;;;10.93;;
46613;SDS011;32338;50.430;6.806;2022-08-05T07:07:39;14.27;;;13.00;;
46613;SDS011;32338;50.430;6.806;2022-08-05T07:10:08;15.57;;;13.57;;
46613;SDS011;32338;50.430;6.806;2022-08-05T07:12:35;16.73;;;14.50;;
46613;SDS011;32338;50.430;6.806;2022-08-05T07:15:20;13.32;;;11.20;;
46613;SDS011;32338;50.430;6.806;2022-08-05T07:18:04;14.30;;;12.23;;
46613;SDS011;32338;50.430;6.806;2022-08-05T07:20:31;13.02;;;11.63;;
46613;SDS011;32338;50.430;6.806;2022-08-05T07:22:58;14.27;;;12.77;;
46613;SDS011;32338;50.430;6.806;2022-08-05T07:25:25;12.50;;;11.15;;
46613;SDS011;32338;50.430;6.806;2022-08-05T07:27:53;11.68;;;10.52;;
46613;SDS011;32338;50.430;6.806;2022-08-05T07:30:21;11.32;;;9.82;;
46613;SDS011;32338;50.430;6.806;2022-08-05T07:32:48;10.90;;;9.70;;
46613;SDS011;32338;50.430;6.806;2022-08-05T07:35:14;9.63;;;8.73;;
46613;SDS011;32338;50.430;6.806;2022-08-05T07:37:41;9.07;;;8.18;;
46613;SDS011;32338;50.430;6.806;2022-08-05T07:40:08;11.02;;;8.90;;
46613;SDS011;32338;50.430;6.806;2022-08-05T07:42:36;9.48;;;8.57;;
46613;SDS011;32338;50.430;6.806;2022-08-05T07:45:03;9.02;;;8.23;;
46613;SDS011;32338;50.430;6.806;2022-08-05T07:47:31;8.55;;;7.88;;
46613;SDS011;32338;50.430;6.806;2022-08-05T07:49:58;8.98;;;8.25;;
46613;SDS011;32338;50.430;6.806;2022-08-05T07:52:24;9.02;;;7.68;;
46613;SDS011;32338;50.430;6.806;2022-08-05T07:54:51;8.25;;;6.90;;
46613;SDS011;32338;50.430;6.806;2022-08-05T07:57:18;8.07;;;7.35;;
46613;SDS011;32338;50.430;6.806;2022-08-05T07:59:44;7.80;;;6.93;;
46613;SDS011;32338;50.430;6.806;2022-08-05T08:02:11;7.55;;;6.63;;
46613;SDS011;32338;50.430;6.806;2022-08-05T08:04:39;7.35;;;6.75;;
46613;SDS011;32338;50.430;6.806;2022-08-05T08:07:06;6.82;;;6.10;;
46613;SDS011;32338;50.430;6.806;2022-08-05T08:09:36;7.80;;;5.80;;
46613;SDS011;32338;50.430;6.806;2022-08-05T08:12:02;5.95;;;5.45;;
46613;SDS011;32338;50.430;6.806;2022-08-05T08:14:29;6.25;;;5.82;;
46613;SDS011;32338;50.430;6.806;2022-08-05T08:16:56;7.20;;;6.03;;
46613;SDS011;32338;50.430;6.806;2022-08-05T08:19:23;5.65;;;5.25;;
46613;SDS011;32338;50.430;6.806;2022-08-05T08:21:51;6.10;;;5.57;;
46613;SDS011;32338;50.430;6.806;2022-08-05T08:24:18;5.20;;;4.80;;
46613;SDS011;32338;50.430;6.806;2022-08-05T08:26:44;4.65;;;4.18;;
46613;SDS011;32338;50.430;6.806;2022-08-05T08:29:11;5.05;;;4.68;;
46613;SDS011;32338;50.430;6.806;2022-08-05T08:31:38;5.30;;;4.32;;
46613;SDS011;32338;50.430;6.806;2022-08-05T08:34:05;5.22;;;4.13;;
46613;SDS011;32338;50.430;6.806;2022-08-05T08:36:31;5.80;;;4.47;;
46613;SDS011;32338;50.430;6.806;2022-08-05T08:38:59;5.28;;;4.72;;
46613;SDS011;32338;50.430;6.806;2022-08-05T08:41:26;4.25;;;3.85;;
46613;SDS011;32338;50.430;6.806;2022-08-05T08:43:57;3.60;;;3.30;;
46613;SDS011;32338;50.430;6.806;2022-08-05T08:46:25;6.13;;;4.32;;
46613;SDS011;32338;50.430;6.806;2022-08-05T08:48:54;4.18;;;3.88;;
46613;SDS011;32338;50.430;6.806;2022-08-05T08:51:22;4.72;;;4.15;;
46613;SDS011;32338;50.430;6.806;2022-08-05T08:53:49;4.78;;;4.25;;
46613;SDS011;32338;50.430;6.806;2022-08-05T08:56:18;4.00;;;3.70;;
46613;SDS011;32338;50.430;6.806;2022-08-05T08:58:46;4.13;;;3.78;;
46613;SDS011;32338;50.430;6.806;2022-08-05T09:01:12;4.35;;;4.05;;
46613;SDS011;32338;50.430;6.806;2022-08-05T09:03:40;9.50;;;3.47;;
46613;SDS011;32338;50.430;6.806;2022-08-05T09:06:07;4.78;;;2.78;;
46613;SDS011;32338;50.430;6.806;2022-08-05T09:08:34;3.15;;;2.85;;
46613;SDS011;32338;50.430;6.806;2022-08-05T09:11:01;3.58;;;3.28;;
46613;SDS011;32338;50.430;6.806;2022-08-05T09:13:32;3.40;;;3.20;;
46613;SDS011;32338;50.430;6.806;2022-08-05T09:16:15;3.08;;;2.88;;
46613;SDS011;32338;50.430;6.806;2022-08-05T09:18:48;4.32;;;4.00;;
46613;SDS011;32338;50.430;6.806;2022-08-05T09:21:17;3.88;;;3.55;;
46613;SDS011;32338;50.430;6.806;2022-08-05T09:24:00;3.97;;;2.70;;
46613;SDS011;32338;50.430;6.806;2022-08-05T09:26:29;3.00;;;2.80;;
46613;SDS011;32338;50.430;6.806;2022-08-05T09:29:03;3.08;;;2.88;;
46613;SDS011;32338;50.430;6.806;2022-08-05T09:31:34;3.20;;;2.90;;
46613;SDS011;32338;50.430;6.806;2022-08-05T09:34:06;2.28;;;2.17;;
46613;SDS011;32338;50.430;6.806;2022-08-05T09:36:41;3.10;;;2.85;;
46613;SDS011;32338;50.430;6.806;2022-08-05T09:39:12;3.60;;;3.00;;
46613;SDS011;32338;50.430;6.806;2022-08-05T09:41:55;3.33;;;3.03;;
46613;SDS011;32338;50.430;6.806;2022-08-05T09:44:38;2.90;;;2.60;;
46613;SDS011;32338;50.430;6.806;2022-08-05T09:47:11;2.47;;;2.20;;
46613;SDS011;32338;50.430;6.806;2022-08-05T09:49:40;2.55;;;2.35;;
46613;SDS011;32338;50.430;6.806;2022-08-05T09:55:07;4.47;;;2.35;;
46613;SDS011;32338;50.430;6.806;2022-08-05T09:57:40;3.92;;;3.38;;
46613;SDS011;32338;50.430;6.806;2022-08-05T10:00:14;5.18;;;4.78;;
46613;SDS011;32338;50.430;6.806;2022-08-05T10:02:49;5.60;;;5.10;;
46613;SDS011;32338;50.430;6.806;2022-08-05T10:05:23;3.67;;;3.40;;
46613;SDS011;32338;50.430;6.806;2022-08-05T10:07:56;2.63;;;2.50;;
46613;SDS011;32338;50.430;6.806;2022-08-05T10:10:30;2.15;;;2.05;;
46613;SDS011;32338;50.430;6.806;2022-08-05T10:13:12;2.08;;;1.98;;
46613;SDS011;32338;50.430;6.806;2022-08-05T10:16:02;2.95;;;2.75;;
46613;SDS011;32338;50.430;6.806;2022-08-05T10:18:35;4.13;;;3.83;;
46613;SDS011;32338;50.430;6.806;2022-08-05T10:21:06;4.72;;;4.35;;
46613;SDS011;32338;50.430;6.806;2022-08-05T10:23:38;5.45;;;4.95;;
46613;SDS011;32338;50.430;6.806;2022-08-05T10:26:08;4.95;;;4.65;;
46613;SDS011;32338;50.430;6.806;2022-08-05T10:28:39;5.25;;;4.95;;
46613;SDS011;32338;50.430;6.806;2022-08-05T10:31:17;6.25;;;5.75;;
46613;SDS011;32338;50.430;6.806;2022-08-05T10:33:51;7.15;;;6.65;;
46613;SDS011;32338;50.430;6.806;2022-08-05T10:36:21;7.78;;;7.28;;
46613;SDS011;32338;50.430;6.806;2022-08-05T10:38:58;7.75;;;7.20;;
46613;SDS011;32338;50.430;6.806;2022-08-05T10:41:33;8.75;;;8.10;;
46613;SDS011;32338;50.430;6.806;2022-08-05T10:44:10;10.38;;;9.48;;
46613;SDS011;32338;50.430;6.806;2022-08-05T10:46:43;11.30;;;10.30;;
46613;SDS011;32338;50.430;6.806;2022-08-05T10:49:19;11.15;;;10.05;;
46613;SDS011;32338;50.430;6.806;2022-08-05T10:51:47;13.38;;;10.82;;
46613;SDS011;32338;50.430;6.806;2022-08-05T10:54:22;14.77;;;10.70;;
46613;SDS011;32338;50.430;6.806;2022-08-05T10:56:53;10.52;;;9.68;;
46613;SDS011;32338;50.430;6.806;2022-08-05T10:59:27;11.07;;;10.27;;
46613;SDS011;32338;50.430;6.806;2022-08-05T11:02:08;9.27;;;8.48;;
46613;SDS011;32338;50.430;6.806;2022-08-05T11:04:41;8.23;;;7.57;;
46613;SDS011;32338;50.430;6.806;2022-08-05T11:07:22;6.47;;;5.97;;
46613;SDS011;32338;50.430;6.806;2022-08-05T11:09:52;6.15;;;5.65;;
46613;SDS011;32338;50.430;6.806;2022-08-05T11:12:44;5.82;;;5.43;;
46613;SDS011;32338;50.430;6.806;2022-08-05T11:15:17;6.38;;;5.78;;
46613;SDS011;32338;50.430;6.806;2022-08-05T11:18:05;6.40;;;6.00;;
46613;SDS011;32338;50.430;6.806;2022-08-05T11:20:49;6.95;;;6.45;;
46613;SDS011;32338;50.430;6.806;2022-08-05T11:23:29;9.05;;;8.43;;
46613;SDS011;32338;50.430;6.806;2022-08-05T11:26:14;8.77;;;8.18;;
46613;SDS011;32338;50.430;6.806;2022-08-05T11:28:55;10.02;;;9.23;;
46613;SDS011;32338;50.430;6.806;2022-08-05T11:31:34;10.80;;;9.98;;
46613;SDS011;32338;50.430;6.806;2022-08-05T11:34:24;12.57;;;11.45;;
46613;SDS011;32338;50.430;6.806;2022-08-05T11:37:02;12.20;;;11.15;;
46613;SDS011;32338;50.430;6.806;2022-08-05T11:39:49;13.95;;;12.73;;
46613;SDS011;32338;50.430;6.806;2022-08-05T11:42:21;18.50;;;14.15;;
46613;SDS011;32338;50.430;6.806;2022-08-05T11:44:54;15.95;;;14.38;;
46613;SDS011;32338;50.430;6.806;2022-08-05T11:47:31;19.83;;;17.58;;
46613;SDS011;32338;50.430;6.806;2022-08-05T11:50:03;21.27;;;19.05;;
46613;SDS011;32338;50.430;6.806;2022-08-05T11:52:33;19.63;;;17.52;;
46613;SDS011;32338;50.430;6.806;2022-08-05T11:55:05;18.63;;;15.95;;
46613;SDS011;32338;50.430;6.806;2022-08-05T11:57:32;20.00;;;14.43;;
46613;SDS011;32338;50.430;6.806;2022-08-05T12:00:02;16.02;;;12.65;;
46613;SDS011;32338;50.430;6.806;2022-08-05T12:02:50;12.45;;;10.88;;
46613;SDS011;32338;50.430;6.806;2022-08-05T12:05:27;9.85;;;8.95;;
46613;SDS011;32338;50.430;6.806;2022-08-05T12:07:56;9.32;;;7.70;;
46613;SDS011;32338;50.430;6.806;2022-08-05T12:10:24;10.82;;;6.57;;
46613;SDS011;32338;50.430;6.806;2022-08-05T12:13:02;10.23;;;5.75;;
46613;SDS011;32338;50.430;6.806;2022-08-05T12:15:30;7.80;;;5.32;;
46613;SDS011;32338;50.430;6.806;2022-08-05T12:18:00;6.45;;;5.40;;
46613;SDS011;32338;50.430;6.806;2022-08-05T12:20:28;7.78;;;5.50;;
46613;SDS011;32338;50.430;6.806;2022-08-05T12:23:08;10.00;;;5.88;;
46613;SDS011;32338;50.430;6.806;2022-08-05T12:25:47;7.88;;;5.95;;
46613;SDS011;32338;50.430;6.806;2022-08-05T12:28:28;6.07;;;4.90;;
46613;SDS011;32338;50.430;6.806;2022-08-05T12:30:56;5.95;;;5.20;;
46613;SDS011;32338;50.430;6.806;2022-08-05T12:33:23;8.45;;;5.35;;
46613;SDS011;32338;50.430;6.806;2022-08-05T12:35:56;5.80;;;4.00;;
46613;SDS011;32338;50.430;6.806;2022-08-05T12:38:26;4.97;;;4.07;;
46613;SDS011;32338;50.430;6.806;2022-08-05T12:40:56;6.50;;;4.13;;
46613;SDS011;32338;50.430;6.806;2022-08-05T12:43:24;6.63;;;4.55;;
46613;SDS011;32338;50.430;6.806;2022-08-05T12:45:53;9.00;;;4.32;;
46613;SDS011;32338;50.430;6.806;2022-08-05T12:48:36;5.40;;;3.70;;
46613;SDS011;32338;50.430;6.806;2022-08-05T12:51:17;5.03;;;2.90;;
46613;SDS011;32338;50.430;6.806;2022-08-05T12:53:58;4.95;;;3.20;;
46613;SDS011;32338;50.430;6.806;2022-08-05T12:56:33;4.63;;;2.90;;
46613;SDS011;32338;50.430;6.806;2022-08-05T13:01:38;6.10;;;2.50;;
46613;SDS011;32338;50.430;6.806;2022-08-05T13:04:05;6.90;;;2.20;;
46613;SDS011;32338;50.430;6.806;2022-08-05T13:06:37;2.92;;;1.85;;
46613;SDS011;32338;50.430;6.806;2022-08-05T13:09:09;4.35;;;1.98;;
46613;SDS011;32338;50.430;6.806;2022-08-05T13:11:38;2.85;;;1.60;;
46613;SDS011;32338;50.430;6.806;2022-08-05T13:14:14;5.15;;;1.77;;
46613;SDS011;32338;50.430;6.806;2022-08-05T13:16:45;4.07;;;1.90;;
46613;SDS011;32338;50.430;6.806;2022-08-05T13:19:19;2.90;;;1.88;;
46613;SDS011;32338;50.430;6.806;2022-08-05T13:21:51;6.00;;;2.08;;
46613;SDS011;32338;50.430;6.806;2022-08-05T13:24:23;4.70;;;1.58;;
46613;SDS011;32338;50.430;6.806;2022-08-05T13:26:56;5.15;;;1.77;;
46613;SDS011;32338;50.430;6.806;2022-08-05T13:29:24;4.45;;;1.70;;
46613;SDS011;32338;50.430;6.806;2022-08-05T13:31:51;2.00;;;1.52;;
46613;SDS011;32338;50.430;6.806;2022-08-05T13:34:24;2.55;;;1.48;;
46613;SDS011;32338;50.430;6.806;2022-08-05T13:37:02;4.60;;;1.52;;
46613;SDS011;32338;50.430;6.806;2022-08-05T13:39:43;5.13;;;1.30;;
46613;SDS011;32338;50.430;6.806;2022-08-05T13:42:14;5.38;;;1.88;;
46613;SDS011;32338;50.430;6.806;2022-08-05T13:44:44;4.07;;;1.80;;
46613;SDS011;32338;50.430;6.806;2022-08-05T13:47:16;3.88;;;1.90;;
46613;SDS011;32338;50.430;6.806;2022-08-05T13:49:51;3.55;;;2.40;;
46613;SDS011;32338;50.430;6.806;2022-08-05T13:52:28;2.92;;;1.83;;
46613;SDS011;32338;50.430;6.806;2022-08-05T13:55:09;6.33;;;2.47;;
46613;SDS011;32338;50.430;6.806;2022-08-05T13:57:44;7.43;;;2.00;;
46613;SDS011;32338;50.430;6.806;2022-08-05T14:00:15;3.83;;;1.83;;
46613;SDS011;32338;50.430;6.806;2022-08-05T14:02:52;1.90;;;1.65;;
46613;SDS011;32338;50.430;6.806;2022-08-05T14:05:23;2.83;;;1.58;;
46613;SDS011;32338;50.430;6.806;2022-08-05T14:07:52;3.72;;;1.85;;
46613;SDS011;32338;50.430;6.806;2022-08-05T14:10:21;4.60;;;1.50;;
46613;SDS011;32338;50.430;6.806;2022-08-05T14:12:50;3.65;;;1.80;;
46613;SDS011;32338;50.430;6.806;2022-08-05T14:15:20;3.00;;;1.60;;
46613;SDS011;32338;50.430;6.806;2022-08-05T14:17:48;3.25;;;1.65;;
46613;SDS011;32338;50.430;6.806;2022-08-05T14:20:17;3.65;;;1.58;;
46613;SDS011;32338;50.430;6.806;2022-08-05T14:22:44;5.22;;;2.90;;
46613;SDS011;32338;50.430;6.806;2022-08-05T14:25:13;3.17;;;2.25;;
46613;SDS011;32338;50.430;6.806;2022-08-05T14:27:43;2.55;;;2.10;;
46613;SDS011;32338;50.430;6.806;2022-08-05T14:30:17;2.83;;;1.90;;
46613;SDS011;32338;50.430;6.806;2022-08-05T14:32:51;5.63;;;2.40;;
46613;SDS011;32338;50.430;6.806;2022-08-05T14:35:19;2.17;;;1.98;;
46613;SDS011;32338;50.430;6.806;2022-08-05T14:37:46;2.40;;;1.70;;
46613;SDS011;32338;50.430;6.806;2022-08-05T14:40:14;4.90;;;2.20;;
46613;SDS011;32338;50.430;6.806;2022-08-05T14:42:43;4.18;;;2.25;;
46613;SDS011;32338;50.430;6.806;2022-08-05T14:45:10;5.10;;;2.28;;
46613;SDS011;32338;50.430;6.806;2022-08-05T14:47:39;4.35;;;2.58;;
46613;SDS011;32338;50.430;6.806;2022-08-05T14:50:11;4.20;;;2.50;;
46613;SDS011;32338;50.430;6.806;2022-08-05T14:52:40;4.57;;;1.80;;
46613;SDS011;32338;50.430;6.806;2022-08-05T14:55:08;2.47;;;1.75;;
46613;SDS011;32338;50.430;6.806;2022-08-05T14:57:36;3.08;;;1.80;;
46613;SDS011;32338;50.430;6.806;2022-08-05T15:00:14;5.32;;;1.67;;
46613;SDS011;32338;50.430;6.806;2022-08-05T15:02:41;2.63;;;1.50;;